Time;durP1;ratioP1;P1;durP2;ratioP2;P2;SDS_P1;SDS_P2;PMS_P1;PMS_P2;Temp;Humidity;BMP_temperature;BMP_pressure;BME280_temperature;BME280_humidity;BME280_pressure;Samples;Min_cycle;Max_cycle;Signal;HPM_P1;HPM_P2
2022/03/23 00:01:45;;;;;;;59.50;42.08;;;;;;;;;;4986253;28;20042;-80
2022/03/23 00:04:11;;;;;;;58.88;42.78;;;;;;;;;;5024210;28;20048;-80
2022/03/23 00:06:40;;;;;;;66.78;44.90;;;;;;;;;;5034702;28;20060;-80
2022/03/23 00:09:08;;;;;;;62.95;42.95;;;;;;;;;;5008741;28;20046;-80
2022/03/23 00:11:37;;;;;;;59.05;39.70;;;;;;;;;;5006404;28;20442;-80
2022/03/23 00:14:05;;;;;;;52.53;40.90;;;;;;;;;;5000120;28;20049;-80
2022/03/23 00:16:31;;;;;;;61.80;41.28;;;;;;;;;;5018947;28;20469;-80
2022/03/23 00:18:57;;;;;;;54.47;39.03;;;;;;;;;;4989090;28;20056;-80
2022/03/23 00:21:24;;;;;;;62.00;43.47;;;;;;;;;;5015028;28;20042;-80
2022/03/23 00:23:50;;;;;;;64.45;43.67;;;;;;;;;;5031491;28;20714;-80
2022/03/23 00:26:16;;;;;;;54.88;41.25;;;;;;;;;;5038797;28;20041;-80
2022/03/23 00:28:42;;;;;;;58.50;42.67;;;;;;;;;;5012970;28;20488;-80
2022/03/23 00:31:09;;;;;;;68.13;45.35;;;;;;;;;;5037378;28;20052;-80
2022/03/23 00:33:36;;;;;;;60.53;43.33;;;;;;;;;;5031299;28;20056;-80
2022/03/23 00:36:06;;;;;;;61.88;43.22;;;;;;;;;;4988096;28;20057;-80
2022/03/23 00:38:39;;;;;;;66.13;45.08;;;;;;;;;;5012465;28;20045;-80
2022/03/23 00:41:06;;;;;;;62.85;42.50;;;;;;;;;;5024523;28;20042;-80
2022/03/23 00:43:32;;;;;;;66.75;44.70;;;;;;;;;;5027973;28;20589;-80
2022/03/23 00:45:59;;;;;;;68.68;44.22;;;;;;;;;;5024598;28;20045;-80
2022/03/23 00:48:25;;;;;;;62.97;41.95;;;;;;;;;;5021406;28;20057;-80
2022/03/23 00:50:52;;;;;;;65.18;42.53;;;;;;;;;;5024082;28;20042;-80
2022/03/23 00:53:19;;;;;;;60.72;42.47;;;;;;;;;;5012717;28;20058;-80
2022/03/23 00:55:56;;;;;;;60.88;42.35;;;;;;;;;;5021308;28;20052;-80
2022/03/23 00:58:23;;;;;;;65.35;43.20;;;;;;;;;;5038572;28;20053;-80
2022/03/23 01:00:49;;;;;;;59.40;42.30;;;;;;;;;;5026506;28;20042;-80
2022/03/23 01:03:15;;;;;;;66.50;45.25;;;;;;;;;;5016123;28;20430;-80
2022/03/23 01:05:41;;;;;;;56.53;39.58;;;;;;;;;;5030386;28;20411;-80
2022/03/23 01:08:08;;;;;;;59.80;40.95;;;;;;;;;;5029101;28;20136;-80
2022/03/23 01:10:34;;;;;;;57.58;39.83;;;;;;;;;;4998646;28;20050;-80
2022/03/23 01:13:01;;;;;;;58.97;42.75;;;;;;;;;;5040508;28;20123;-80
2022/03/23 01:15:27;;;;;;;59.10;41.45;;;;;;;;;;5025637;28;20083;-80
2022/03/23 01:17:57;;;;;;;56.00;40.08;;;;;;;;;;5026989;28;20111;-80
2022/03/23 01:20:24;;;;;;;54.00;37.13;;;;;;;;;;5028814;28;20601;-80
2022/03/23 01:22:51;;;;;;;59.78;41.08;;;;;;;;;;5029289;28;20219;-80
2022/03/23 01:25:18;;;;;;;53.38;38.15;;;;;;;;;;5028803;28;20163;-80
2022/03/23 01:27:44;;;;;;;59.15;40.50;;;;;;;;;;5027721;28;20053;-80
2022/03/23 01:30:12;;;;;;;57.72;42.03;;;;;;;;;;5010150;28;20052;-80
2022/03/23 01:32:41;;;;;;;63.38;42.63;;;;;;;;;;5023744;28;20060;-80
2022/03/23 01:35:15;;;;;;;64.97;40.78;;;;;;;;;;5039631;28;20053;-80
2022/03/23 01:37:43;;;;;;;56.03;40.50;;;;;;;;;;5033620;28;20098;-80
2022/03/23 01:40:11;;;;;;;56.95;40.50;;;;;;;;;;5001666;28;20118;-80
2022/03/23 01:42:38;;;;;;;57.10;40.42;;;;;;;;;;5014928;28;20052;-80
2022/03/23 01:45:08;;;;;;;61.97;39.70;;;;;;;;;;5015380;28;20170;-80
2022/03/23 01:47:36;;;;;;;63.80;42.53;;;;;;;;;;5014679;28;20048;-80
2022/03/23 01:50:04;;;;;;;55.78;41.75;;;;;;;;;;5022854;28;20433;-80
2022/03/23 01:52:31;;;;;;;60.58;42.50;;;;;;;;;;5037612;28;20147;-80
2022/03/23 01:54:58;;;;;;;56.70;42.00;;;;;;;;;;5030765;28;20521;-80
2022/03/23 01:57:25;;;;;;;61.63;41.05;;;;;;;;;;5005768;28;20112;-80
2022/03/23 01:59:51;;;;;;;61.55;42.88;;;;;;;;;;5037478;28;20040;-79
2022/03/23 02:02:18;;;;;;;58.15;43.30;;;;;;;;;;5014244;28;20076;-80
2022/03/23 02:04:45;;;;;;;65.90;43.22;;;;;;;;;;5047757;28;20504;-80
2022/03/23 02:07:13;;;;;;;67.03;42.72;;;;;;;;;;5014451;28;20052;-79
2022/03/23 02:09:43;;;;;;;59.80;41.58;;;;;;;;;;5049329;28;20064;-79
2022/03/23 02:12:09;;;;;;;58.80;38.92;;;;;;;;;;5035152;28;20323;-80
2022/03/23 02:14:36;;;;;;;57.00;42.38;;;;;;;;;;5012117;28;20080;-79
2022/03/23 02:17:03;;;;;;;66.10;43.20;;;;;;;;;;5028884;28;20405;-80
2022/03/23 02:19:32;;;;;;;56.40;38.80;;;;;;;;;;5032079;28;20128;-80
2022/03/23 02:21:58;;;;;;;57.78;40.97;;;;;;;;;;5022111;28;20393;-80
2022/03/23 02:24:27;;;;;;;61.00;41.00;;;;;;;;;;5038608;28;20053;-80
2022/03/23 02:26:53;;;;;;;60.67;42.47;;;;;;;;;;5039935;28;20056;-80
2022/03/23 02:29:21;;;;;;;56.70;42.17;;;;;;;;;;5048798;28;20120;-79
2022/03/23 02:31:47;;;;;;;58.85;40.97;;;;;;;;;;5030958;28;20526;-79
2022/03/23 02:34:15;;;;;;;60.97;42.80;;;;;;;;;;5033348;28;20076;-80
2022/03/23 02:36:41;;;;;;;57.55;40.92;;;;;;;;;;5014826;28;20060;-79
2022/03/23 02:39:07;;;;;;;58.15;42.00;;;;;;;;;;5030439;28;20049;-80
2022/03/23 02:41:36;;;;;;;56.78;39.92;;;;;;;;;;5048384;28;20037;-79
2022/03/23 02:44:06;;;;;;;62.90;41.30;;;;;;;;;;5047237;28;20377;-79
2022/03/23 02:46:35;;;;;;;63.58;42.67;;;;;;;;;;5030508;28;20559;-79
2022/03/23 02:49:03;;;;;;;61.10;40.30;;;;;;;;;;5048278;28;20077;-79
2022/03/23 02:51:33;;;;;;;68.80;42.28;;;;;;;;;;5033999;28;20060;-79
2022/03/23 03:02:42;;;;;;;60.58;42.45;;;;;;;;;;5047230;28;20079;-79
2022/03/23 03:05:12;;;;;;;65.85;42.63;;;;;;;;;;5038152;28;20044;-79
2022/03/23 03:10:27;;;;;;;63.17;40.63;;;;;;;;;;4999362;28;20049;-79
2022/03/23 03:12:54;;;;;;;60.78;41.83;;;;;;;;;;5047740;28;20472;-79
2022/03/23 03:15:21;;;;;;;55.72;39.13;;;;;;;;;;5047898;28;20041;-80
2022/03/23 03:17:48;;;;;;;61.25;40.50;;;;;;;;;;5047810;28;20045;-80
2022/03/23 03:20:14;;;;;;;58.60;40.33;;;;;;;;;;5048455;28;20045;-80
2022/03/23 03:22:41;;;;;;;56.03;41.42;;;;;;;;;;5014588;28;20482;-80
2022/03/23 03:25:08;;;;;;;66.55;42.35;;;;;;;;;;5018548;28;20049;-80
2022/03/23 03:27:37;;;;;;;54.88;37.42;;;;;;;;;;5046617;28;20179;-80
2022/03/23 03:30:05;;;;;;;57.35;39.50;;;9.80;99.90;;;;;;5029658;28;20124;-79
2022/03/23 03:32:32;;;;;;;57.45;39.90;;;7.20;99.90;;;;;;5028933;28;20083;-80
2022/03/23 03:35:04;;;;;;;55.10;38.85;;;7.10;99.90;;;;;;5018454;28;20232;-80
2022/03/23 03:37:31;;;;;;;60.20;41.35;;;7.10;99.90;;;;;;5029784;28;20044;-79
2022/03/23 03:39:56;;;;;;;61.10;41.08;;;7.10;99.90;;;;;;5029502;28;20478;-79
2022/03/23 03:42:22;;;;;;;63.33;41.80;;;7.00;99.90;;;;;;5028446;28;20087;-80
2022/03/23 03:44:50;;;;;;;59.28;42.08;;;7.00;99.90;;;;;;5011626;28;20497;-79
2022/03/23 03:47:18;;;;;;;66.53;44.75;;;7.00;99.90;;;;;;5029552;28;20053;-80
2022/03/23 03:49:44;;;;;;;64.65;42.08;;;7.00;99.90;;;;;;5038984;28;20047;-79
2022/03/23 03:52:10;;;;;;;59.03;41.40;;;6.90;99.90;;;;;;5021258;28;20081;-79
2022/03/23 03:54:38;;;;;;;67.95;42.00;;;6.90;99.90;;;;;;5034207;28;20152;-79
2022/03/23 03:57:07;;;;;;;58.78;41.15;;;6.90;99.90;;;;;;5048944;28;20049;-79
2022/03/23 03:59:34;;;;;;;62.40;41.47;;;6.80;99.90;;;;;;5029829;28;20073;-79
2022/03/23 04:02:01;;;;;;;61.28;41.25;;;6.80;99.90;;;;;;5024365;28;20364;-79
2022/03/23 04:04:27;;;;;;;69.00;43.97;;;6.80;99.90;;;;;;5017928;28;20061;-80
2022/03/23 04:06:54;;;;;;;61.35;41.08;;;6.80;99.90;;;;;;5017688;28;20113;-79
2022/03/23 04:09:19;;;;;;;69.03;43.90;;;6.70;99.90;;;;;;5031231;28;20049;-85
2022/03/23 04:11:49;;;;;;;66.75;43.30;;;6.70;99.90;;;;;;5021546;28;20068;-85
2022/03/23 04:14:21;;;;;;;58.33;42.92;;;6.70;99.90;;;;;;5017013;28;20080;-85
2022/03/23 04:16:50;;;;;;;64.25;42.78;;;;;;;;;;5029847;28;20409;-85
2022/03/23 04:19:16;;;;;;;65.78;42.90;;;;;;;;;;5037144;28;20516;-85
2022/03/23 04:21:43;;;;;;;67.18;45.60;;;;;;;;;;5013941;28;20072;-85
2022/03/23 04:24:09;;;;;;;64.47;46.28;;;;;;;;;;5017600;28;20095;-85
2022/03/23 04:26:38;;;;;;;74.50;46.17;;;;;;;;;;5033918;28;20065;-85
2022/03/23 04:29:04;;;;;;;70.13;43.40;;;;;;;;;;5032871;28;20118;-85
2022/03/23 04:31:31;;;;;;;73.53;47.47;;;;;;;;;;5016191;28;20469;-84
2022/03/23 04:33:57;;;;;;;64.07;46.35;;;;;;;;;;5032940;28;20122;-85
2022/03/23 04:36:25;;;;;;;73.55;45.60;;;;;;;;;;5040831;28;20102;-85
2022/03/23 04:38:52;;;;;;;65.32;45.95;;;;;;;;;;5033377;28;20045;-85
2022/03/23 04:41:19;;;;;;;71.53;46.25;;;;;;;;;;5022634;28;20049;-85
2022/03/23 04:43:45;;;;;;;71.47;47.30;;;;;;;;;;5008182;28;20045;-85
2022/03/23 04:46:15;;;;;;;67.10;45.35;;;;;;;;;;5032669;28;20063;-85
2022/03/23 04:48:41;;;;;;;68.35;45.17;;;;;;;;;;5050447;28;20137;-85
2022/03/23 04:51:07;;;;;;;63.55;43.75;;;;;;;;;;5004499;28;20090;-85
2022/03/23 04:53:33;;;;;;;66.32;44.65;;;;;;;;;;5001538;28;20136;-85
2022/03/23 04:56:05;;;;;;;68.05;44.50;;;;;;;;;;5032521;28;20166;-85
2022/03/23 04:58:36;;;;;;;73.10;46.97;;;;;;;;;;5016343;28;20045;-85
2022/03/23 05:01:03;;;;;;;71.22;46.55;;;;;;;;;;5007403;28;20045;-85
2022/03/23 05:03:29;;;;;;;70.57;45.97;;;;;;;;;;5036326;28;20395;-85
2022/03/23 05:05:55;;;;;;;72.22;45.28;;;;;;;;;;5038051;28;20149;-85
2022/03/23 05:08:22;;;;;;;71.80;46.53;;;;;;;;;;5036532;28;20151;-85
2022/03/23 05:10:51;;;;;;;72.15;46.65;;;;;;;;;;4998808;28;20089;-79
2022/03/23 05:13:17;;;;;;;71.47;47.83;;;;;;;;;;5014667;28;20064;-79
2022/03/23 05:15:43;;;;;;;69.30;43.75;;;;;;;;;;5019261;28;20544;-79
2022/03/23 05:18:16;;;;;;;68.53;44.58;;;6.70;99.90;;;;;;5029382;28;20103;-79
2022/03/23 05:20:42;;;;;;;66.93;44.92;;;;;;;;;;5037421;28;20051;-79
2022/03/23 05:23:08;;;;;;;66.10;44.85;;;;;;;;;;5025747;28;20044;-85
2022/03/23 05:25:34;;;;;;;67.22;44.60;;;;;;;;;;5013716;28;20056;-85
2022/03/23 05:28:03;;;;;;;67.78;43.55;;;;;;;;;;5036422;28;20052;-85
2022/03/23 05:30:29;;;;;;;65.80;46.15;;;;;;;;;;5006150;28;20552;-85
2022/03/23 05:32:55;;;;;;;70.45;45.90;;;;;;;;;;5014856;28;20370;-85
2022/03/23 05:35:22;;;;;;;71.38;46.90;;;;;;;;;;5013848;28;20425;-85
2022/03/23 05:37:50;;;;;;;62.08;42.15;;;;;;;;;;5026539;28;20512;-79
2022/03/23 05:40:17;;;;;;;63.88;43.55;;;;;;;;;;5016903;28;20045;-79
2022/03/23 05:42:47;;;;;;;67.47;46.05;;;;;;;;;;4998833;28;20044;-79
2022/03/23 05:45:13;;;;;;;66.63;45.70;;;;;;;;;;5029615;28;20125;-79
2022/03/23 05:47:43;;;;;;;66.53;44.75;;;;;;;;;;5045463;28;20044;-79
2022/03/23 05:50:10;;;;;;;70.78;47.13;;;;;;;;;;5014196;28;20500;-79
2022/03/23 05:52:40;;;;;;;68.40;47.65;;;;;;;;;;5044537;28;20041;-79
2022/03/23 05:55:07;;;;;;;76.85;47.15;;;;;;;;;;5046548;28;20569;-79
2022/03/23 05:57:34;;;;;;;72.07;46.63;;;;;;;;;;5005240;28;20449;-79
2022/03/23 06:00:00;;;;;;;71.10;45.95;;;;;;;;;;5011692;28;20277;-79
2022/03/23 06:02:26;;;;;;;67.10;46.78;;;;;;;;;;5009943;28;20450;-78
2022/03/23 06:04:53;;;;;;;72.35;48.42;;;;;;;;;;4993623;28;20218;-79
2022/03/23 06:07:19;;;;;;;71.55;47.65;;;;;;;;;;5050595;28;20068;-79
2022/03/23 06:09:45;;;;;;;67.60;45.55;;;;;;;;;;5046248;28;20461;-79
2022/03/23 06:12:12;;;;;;;69.60;46.50;;;;;;;;;;5015151;28;20049;-79
2022/03/23 06:14:38;;;;;;;77.78;51.08;;;;;;;;;;5000163;28;20080;-78
2022/03/23 06:17:06;;;;;;;79.40;51.42;;;;;;;;;;5031010;28;20052;-80
2022/03/23 06:19:32;;;;;;;72.40;49.35;;;;;;;;;;5031700;28;20045;-82
2022/03/23 06:22:02;;;;;;;82.80;51.72;;;;;;;;;;4990240;28;20412;-80
2022/03/23 06:24:28;;;;;;;81.40;49.22;;;;;;;;;;4997573;28;20048;-80
2022/03/23 06:27:00;;;;;;;72.45;48.50;;;;;;;;;;5014758;28;20049;-80
2022/03/23 06:29:27;;;;;;;74.82;51.38;;;;;;;;;;5022704;28;20044;-82
2022/03/23 06:31:54;;;;;;;77.78;49.55;;;;;;;;;;4997385;28;20110;-81
2022/03/23 06:34:21;;;;;;;73.97;48.97;;;;;;;;;;5014165;28;20060;-79
2022/03/23 06:36:50;;;;;;;73.72;49.45;;;;;;;;;;5037784;28;20216;-80
2022/03/23 06:39:17;;;;;;;81.40;54.28;;;;;;;;;;5020154;28;20107;-81
2022/03/23 06:41:43;;;;;;;83.13;54.72;;;;;;;;;;5020413;28;20098;-81
2022/03/23 06:44:09;;;;;;;87.80;54.53;;;;;;;;;;5020646;28;20136;-80
2022/03/23 06:46:35;;;;;;;82.40;54.13;;;;;;;;;;5005274;28;20044;-83
2022/03/23 06:49:01;;;;;;;78.50;49.42;;;;;;;;;;5030268;28;20468;-83
2022/03/23 06:51:28;;;;;;;82.30;52.65;;;;;;;;;;5017927;28;20354;-83
2022/03/23 06:53:54;;;;;;;76.30;52.90;;;;;;;;;;5005013;28;20048;-82
2022/03/23 06:56:20;;;;;;;84.05;53.85;;;;;;;;;;5030606;28;20045;-83
2022/03/23 06:58:46;;;;;;;78.25;52.10;;;;;;;;;;5029102;28;20148;-83
2022/03/23 07:01:12;;;;;;;85.32;52.70;;;;;;;;;;5034061;28;20501;-83
2022/03/23 07:03:39;;;;;;;79.90;50.15;;;;;;;;;;5018679;28;20041;-83
2022/03/23 07:06:05;;;;;;;91.28;54.92;;;;;;;;;;5043371;28;20048;-82
2022/03/23 07:11:16;;;;;;;75.00;49.90;;;;;;;;;;5015181;28;20072;-88
2022/03/23 07:13:42;;;;;;;76.65;51.08;;;;;;;;;;5027228;28;20511;-87
2022/03/23 07:16:11;;;;;;;77.15;49.35;;;;;;;;;;5027470;28;20073;-88
2022/03/23 07:18:37;;;;;;;77.78;49.90;;;;;;;;;;5019465;28;20067;-85
2022/03/23 07:21:04;;;;;;;78.25;50.63;;;;;;;;;;5010034;28;20049;-84
2022/03/23 07:23:39;;;;;;;76.00;49.22;;;;;;;;;;5002178;28;20156;-84
2022/03/23 07:26:06;;;;;;;73.75;48.13;;;;;;;;;;4992213;28;20060;-84
2022/03/23 07:28:33;;;;;;;77.68;50.28;;;;;;;;;;5031819;28;20155;-84
2022/03/23 07:31:01;;;;;;;68.25;47.97;;;;;;;;;;5028763;28;20373;-84
2022/03/23 07:33:28;;;;;;;71.15;47.35;;;;;;;;;;4993997;28;20061;-84
2022/03/23 07:35:55;;;;;;;66.50;44.58;;;;;;;;;;5006365;28;20092;-84
2022/03/23 07:38:24;;;;;;;64.50;44.03;;;;;;;;;;5044330;28;20103;-84
2022/03/23 07:40:50;;;;;;;78.72;46.85;;;;;;;;;;5020804;28;20056;-84
2022/03/23 07:43:16;;;;;;;71.90;46.67;;;;;;;;;;5021896;28;20050;-84
2022/03/23 07:45:42;;;;;;;61.58;41.78;;;;;;;;;;5007829;28;20124;-85
2022/03/23 07:48:08;;;;;;;68.70;44.60;;;;;;;;;;5024804;28;20176;-83
2022/03/23 07:50:35;;;;;;;65.90;43.35;;;;;;;;;;5013186;28;20123;-83
2022/03/23 07:53:01;;;;;;;59.13;42.22;;;;;;;;;;5004101;28;20084;-83
2022/03/23 07:55:27;;;;;;;64.95;42.25;;;;;;;;;;5026834;28;20053;-83
2022/03/23 07:57:56;;;;;;;65.57;41.33;;;;;;;;;;5002599;28;20107;-82
2022/03/23 08:00:22;;;;;;;55.78;38.28;;;;;;;;;;5025650;28;20053;-82
2022/03/23 08:02:51;;;;;;;55.00;37.33;;;;;;;;;;5026596;28;20053;-83
2022/03/23 08:05:17;;;;;;;59.17;38.58;;;;;;;;;;5030124;28;20132;-77
2022/03/23 08:07:47;;;;;;;57.65;36.13;;;;;;;;;;5012518;28;20125;-76
2022/03/23 08:10:13;;;;;;;56.83;35.78;;;;;;;;;;5029056;28;20139;-76
2022/03/23 08:12:39;;;;;;;49.10;36.88;;;;;;;;;;5032464;28;20068;-76
2022/03/23 08:15:09;;;;;;;56.00;37.22;;;;;;;;;;5009398;28;20136;-77
2022/03/23 08:17:39;;;;;;;54.30;36.10;;;;;;;;;;5024667;28;20599;-77
2022/03/23 08:22:57;;;;;;;56.45;35.80;;;;;;;;;;5023326;28;20084;-76
2022/03/23 08:25:24;;;;;;;49.55;34.13;;;;;;;;;;5032243;28;20318;-76
2022/03/23 08:27:50;;;;;;;46.65;32.95;;;;;;;;;;5017885;28;20124;-77
2022/03/23 08:30:19;;;;;;;51.33;33.40;;;;;;;;;;5010345;28;20508;-77
2022/03/23 08:32:46;;;;;;;52.58;32.47;;;;;;;;;;5017331;28;20060;-77
2022/03/23 08:35:12;;;;;;;48.78;31.92;;;;;;;;;;5034377;28;20056;-77
2022/03/23 08:37:38;;;;;;;47.63;31.30;;;;;;;;;;5023070;28;20465;-77
2022/03/23 08:40:05;;;;;;;49.67;35.15;;;;;;;;;;4996634;28;20311;-77
2022/03/23 08:42:32;;;;;;;48.92;33.30;;;;;;;;;;5046060;28;20045;-77
2022/03/23 08:45:00;;;;;;;62.00;33.72;;;;;;;;;;5013206;28;20084;-77
2022/03/23 08:47:27;;;;;;;45.67;34.75;;;;;;;;;;5028998;28;20057;-77
2022/03/23 08:49:55;;;;;;;52.17;31.40;;;;;;;;;;5039446;28;20052;-77
2022/03/23 08:52:22;;;;;;;41.15;29.63;;;;;;;;;;5009400;28;20103;-77
2022/03/23 08:54:48;;;;;;;45.78;31.50;;;;;;;;;;5040455;28;20045;-77
2022/03/23 08:57:14;;;;;;;49.08;30.50;;;;;;;;;;5032776;28;20052;-78
2022/03/23 08:59:40;;;;;;;44.25;28.70;;;;;;;;;;5013275;28;20500;-83
2022/03/23 09:02:10;;;;;;;39.92;28.35;;;;;;;;;;5027600;28;20060;-78
2022/03/23 09:04:36;;;;;;;42.20;27.75;;;;;;;;;;5024331;28;20560;-79
2022/03/23 09:07:02;;;;;;;44.50;28.80;;;;;;;;;;5028148;28;20143;-80
2022/03/23 09:09:29;;;;;;;40.88;28.90;;;;;;;;;;5005078;28;20050;-82
2022/03/23 09:11:55;;;;;;;46.20;28.17;;;;;;;;;;5030739;28;20132;-81
2022/03/23 09:14:24;;;;;;;44.60;28.55;;;;;;;;;;5028896;28;20554;-81
2022/03/23 09:16:50;;;;;;;41.00;29.13;;;;;;;;;;5006291;28;20048;-80
2022/03/23 09:19:20;;;;;;;39.67;27.55;;;;;;;;;;5024466;28;20049;-85
2022/03/23 09:21:50;;;;;;;39.72;27.20;;;;;;;;;;5032792;28;20366;-83
2022/03/23 09:24:19;;;;;;;46.03;28.88;;;;;;;;;;5020011;28;20057;-82
2022/03/23 09:26:45;;;;;;;45.95;27.88;;;;;;;;;;5037622;28;20044;-83
2022/03/23 09:29:12;;;;;;;40.60;27.05;;;;;;;;;;4996824;28;20052;-82
2022/03/23 09:31:39;;;;;;;41.42;26.85;;;;;;;;;;5028955;28;20130;-82
2022/03/23 09:34:06;;;;;;;42.97;28.70;;;;;;;;;;5032001;28;20048;-83
2022/03/23 09:39:17;;;;;;;48.08;30.17;;;;;;;;;;5045185;28;20037;-86
2022/03/23 09:41:45;;;;;;;42.67;29.95;;;;;;;;;;5036156;28;20477;-84
2022/03/23 09:44:12;;;;;;;43.33;29.65;;;;;;;;;;5032268;28;20188;-84
2022/03/23 09:46:38;;;;;;;42.75;29.75;;;;;;;;;;4998876;28;20076;-86
2022/03/23 09:49:06;;;;;;;45.78;30.88;;;;;;;;;;5031707;28;20048;-86
2022/03/23 09:51:33;;;;;;;43.08;30.08;;;;;;;;;;5026602;28;20188;-86
2022/03/23 09:54:00;;;;;;;43.88;28.52;;;;;;;;;;5023790;28;20053;-86
2022/03/23 09:56:29;;;;;;;41.58;29.23;;;;;;;;;;5030276;28;20053;-85
2022/03/23 09:58:55;;;;;;;40.90;26.88;;;;;;;;;;5028200;28;20216;-86
2022/03/23 10:01:31;;;;;;;41.92;26.23;;;;;;;;;;5031050;28;20091;-86
2022/03/23 10:04:33;;;;;;;33.88;24.15;;;6.40;99.90;;;;;;5019403;28;20356;-86
2022/03/23 10:07:10;;;;;;;39.28;24.88;;;;;;;;;;5034084;28;20045;-89
2022/03/23 10:09:55;;;;;;;33.08;24.33;;;;;;;;;;5031009;28;20052;-83
2022/03/23 10:12:39;;;;;;;35.85;24.08;;;;;;;;;;5036149;28;20052;-84
2022/03/23 10:15:24;;;;;;;38.45;25.98;;;;;;;;;;5043233;28;20076;-84
2022/03/23 10:18:09;;;;;;;40.55;25.60;;;;;;;;;;5029265;28;20526;-85
2022/03/23 10:20:38;;;;;;;34.83;23.23;;;;;;;;;;5034240;28;20397;-84
2022/03/23 10:23:06;;;;;;;34.03;23.77;;;;;;;;;;5031790;28;20131;-83
2022/03/23 10:25:33;;;;;;;31.23;23.15;;;;;;;;;;5046394;28;20476;-84
2022/03/23 10:28:21;;;;;;;32.90;22.88;;;;;;;;;;5033554;28;20484;-84
2022/03/23 10:30:47;;;;;;;32.47;23.15;;;;;;;;;;5049058;28;20053;-84
2022/03/23 10:33:22;;;;;;;36.50;23.90;;;;;;;;;;5031010;28;20052;-83
2022/03/23 10:35:48;;;;;;;27.58;20.95;;;;;;;;;;5032990;28;20107;-84
2022/03/23 10:38:15;;;;;;;31.73;21.58;;;;;;;;;;5042755;28;20064;-84
2022/03/23 10:40:42;;;;;;;30.38;21.45;;;;;;;;;;5031021;28;20067;-84
2022/03/23 10:43:08;;;;;;;32.13;21.50;;;;;;;;;;5005978;28;20103;-84
2022/03/23 10:45:35;;;;;;;30.85;20.88;;;;;;;;;;5014311;28;20080;-83
2022/03/23 10:48:17;;;;;;;25.23;19.42;;;;;;;;;;5031281;28;20080;-84
2022/03/23 10:50:50;;;;;;;33.85;20.38;;;;;;;;;;5035725;28;20053;-84
2022/03/23 10:53:16;;;;;;;30.08;21.15;;;;;;;;;;5033746;28;20190;-84
2022/03/23 10:55:47;;;;;;;31.23;21.42;;;;;;;;;;5014193;28;20045;-84
2022/03/23 10:58:24;;;;;;;30.58;20.23;;;;;;;;;;5030928;28;20049;-83
2022/03/23 11:00:53;;;;;;;28.10;19.77;;;;;;;;;;5022523;28;20099;-84
2022/03/23 11:03:34;;;;;;;29.58;18.70;;;;;;;;;;5038608;28;20059;-84
2022/03/23 11:06:01;;;;;;;27.45;19.40;;;;;;;;;;5039127;28;20060;-83
2022/03/23 11:08:33;;;;;;;24.92;19.33;;;;;;;;;;5038869;28;20102;-83
2022/03/23 11:16:56;;;;;;;26.55;18.33;;;;;;;;;;5007645;28;20087;-83
2022/03/23 11:19:26;;;;;;;29.40;19.30;;;;;;;;;;5036398;28;20133;-83
2022/03/23 11:22:10;;;;;;;25.60;17.63;;;;;;;;;;5039843;28;20187;-84
2022/03/23 11:24:40;;;;;;;25.75;18.33;;;;;;;;;;5016005;28;20040;-84
2022/03/23 11:27:11;;;;;;;22.63;16.85;;;;;;;;;;5015415;28;20056;-84
2022/03/23 11:29:39;;;;;;;24.00;16.30;;;;;;;;;;5030522;28;20064;-84
2022/03/23 11:32:27;;;;;;;26.70;19.42;;;;;;;;;;5009256;28;20246;-83
2022/03/23 11:34:56;;;;;;;21.67;15.75;;;;;;;;;;5052730;28;20179;-84
2022/03/23 11:37:23;;;;;;;21.75;15.63;;;;;;;;;;5040974;28;20098;-83
2022/03/23 11:39:52;;;;;;;19.63;15.43;;;;;;;;;;5034603;28;20052;-84
2022/03/23 11:42:20;;;;;;;21.77;14.90;;;;;;;;;;5024729;28;20049;-84
2022/03/23 11:44:47;;;;;;;22.40;15.48;;;;;;;;;;5034401;28;20053;-83
2022/03/23 11:47:25;;;;;;;23.27;16.00;;;;;;;;;;5044587;28;20132;-84
2022/03/23 11:50:13;;;;;;;22.85;15.32;;;;;;;;;;5050865;28;20053;-84
2022/03/23 11:52:50;;;;;;;25.30;17.50;;;;;;;;;;5037617;28;20060;-83
2022/03/23 11:58:04;;;;;;;22.70;15.93;;;;;;;;;;5039575;28;20056;-83
2022/03/23 12:00:37;;;;;;;25.30;17.23;;;;;;;;;;5048238;28;20056;-84
2022/03/23 12:03:03;;;;;;;22.63;17.02;;;;;;;;;;5046215;28;20076;-83
2022/03/23 12:05:31;;;;;;;23.15;16.85;;;;;;;;;;5017694;28;20068;-84
2022/03/23 12:07:58;;;;;;;23.67;16.25;;;;;;;;;;5039217;28;20472;-83
2022/03/23 12:10:32;;;;;;;20.90;14.77;;;;;;;;;;5033792;28;20056;-83
2022/03/23 12:13:12;;;;;;;19.08;14.80;;;;;;;;;;5050903;28;20076;-84
2022/03/23 12:15:55;;;;;;;24.30;15.98;;;;;;;;;;5036155;28;20099;-84
2022/03/23 12:18:38;;;;;;;22.42;17.13;;;;;;;;;;5033475;28;20501;-84
2022/03/23 12:21:09;;;;;;;23.83;16.05;;;;;;;;;;5034078;28;20583;-83
2022/03/23 12:23:58;;;;;;;24.35;16.40;;;;;;;;;;5019219;28;20472;-84
2022/03/23 12:26:24;;;;;;;24.25;16.27;;;;;;;;;;5042877;28;20156;-84
2022/03/23 12:29:10;;;;;;;23.88;16.30;;;;;;;;;;5033811;28;20068;-83
2022/03/23 12:31:37;;;;;;;23.77;14.68;;;;;;;;;;5033194;28;20037;-83
2022/03/23 12:34:07;;;;;;;29.30;14.73;;;;;;;;;;5033485;28;20540;-84
2022/03/23 12:36:58;;;;;;;22.95;15.55;;;;;;;;;;5032998;28;20065;-83
2022/03/23 12:39:25;;;;;;;24.70;14.63;;;;;;;;;;5035433;28;20059;-83
2022/03/23 12:41:55;;;;;;;20.58;13.50;;;;;;;;;;5039108;28;20045;-83
2022/03/23 12:44:31;;;;;;;23.77;16.00;;;;;;;;;;5050932;28;20049;-84
2022/03/23 12:47:02;;;;;;;26.33;13.45;;;;;;;;;;5016823;28;20047;-84
2022/03/23 12:58:06;;;;;;;18.52;12.60;;;;;;;;;;5051315;28;20056;-84
2022/03/23 13:00:38;;;;;;;17.50;11.88;;;;;;;;;;5018750;28;20053;-84
2022/03/23 13:03:07;;;;;;;19.13;10.77;;;;;;;;;;5039700;28;20128;-85
2022/03/23 13:05:37;;;;;;;21.52;11.65;;;;;;;;;;5040493;28;20057;-84
2022/03/23 13:08:27;;;;;;;25.58;12.73;;;;;;;;;;5049620;28;20089;-84
2022/03/23 13:10:58;;;;;;;19.00;12.57;;;;;;;;;;5050581;28;20424;-84
2022/03/23 13:13:24;;;;;;;17.67;11.30;;;;;;;;;;5030812;28;20378;-84
2022/03/23 13:15:52;;;;;;;22.15;11.85;;;;;;;;;;5039625;28;20053;-85
2022/03/23 13:18:24;;;;;;;27.85;13.30;;;;;;;;;;5032229;28;20304;-84
2022/03/23 13:20:51;;;;;;;17.15;12.23;;;;;;;;;;5036158;28;20116;-84
2022/03/23 13:23:20;;;;;;;17.35;11.82;;;;;;;;;;5040201;28;20151;-84
2022/03/23 13:25:49;;;;;;;19.55;12.48;;;;;;;;;;5049411;28;20053;-84
2022/03/23 13:28:15;;;;;;;16.33;11.55;;;;;;;;;;5030749;28;20073;-85
2022/03/23 13:30:42;;;;;;;17.17;11.48;;;;;;;;;;5042914;28;20100;-84
2022/03/23 13:33:09;;;;;;;25.35;12.85;;;;;;;;;;5027713;28;20055;-84
2022/03/23 13:35:42;;;;;;;16.25;11.38;;;;;;;;;;5029611;28;20060;-84
2022/03/23 13:38:08;;;;;;;18.95;10.10;;;;;;;;;;5034974;28;20525;-84
2022/03/23 13:43:30;;;;;;;22.38;11.93;;;;;;;;;;5030212;28;20056;-84
2022/03/23 13:45:57;;;;;;;18.20;11.23;;;;;;;;;;5023036;28;20056;-85
2022/03/23 13:48:25;;;;;;;15.00;9.88;;;;;;;;;;5020015;28;20135;-85
2022/03/23 13:50:52;;;;;;;19.30;11.02;;;;;;;;;;5033117;28;20394;-84
2022/03/23 13:53:19;;;;;;;15.23;9.43;;;;;;;;;;5042109;28;20057;-85
2022/03/23 13:55:55;;;;;;;16.05;9.45;;;;;;;;;;5006812;28;20041;-85
2022/03/23 13:58:22;;;;;;;17.05;9.27;;;;;;;;;;5038069;28;20068;-85
2022/03/23 14:00:50;;;;;;;12.70;8.50;;;;;;;;;;5031864;28;20049;-85
2022/03/23 14:03:28;;;;;;;19.20;10.27;;;;;;;;;;5026604;28;20090;-85
2022/03/23 14:06:15;;;;;;;16.85;8.93;;;;;;;;;;5023865;28;20099;-80
2022/03/23 14:08:55;;;;;;;16.10;10.35;;;;;;;;;;5031689;28;20056;-80
2022/03/23 14:12:08;;;;;;;14.52;9.57;;;;;;;;;;5024175;28;20497;-80
2022/03/23 14:14:16;;;;;;;15.82;9.82;;;;;;;;;;5023533;28;20134;-81
2022/03/23 14:16:57;;;;;;;16.95;9.35;;;;;;;;;;5033046;28;20122;-86
2022/03/23 14:19:23;;;;;;;21.05;12.18;;;;;;;;;;5022765;28;20041;-86
2022/03/23 14:21:54;;;;;;;18.92;10.45;;;;;;;;;;5039790;28;20041;-85
2022/03/23 14:24:27;;;;;;;17.15;10.75;;;;;;;;;;5011752;28;20466;-86
2022/03/23 14:26:53;;;;;;;19.80;10.80;;;;;;;;;;5012713;28;20088;-85
2022/03/23 14:29:23;;;;;;;17.38;10.38;;;;;;;;;;5038384;28;20059;-86
2022/03/23 14:31:49;;;;;;;11.45;9.15;;;;;;;;;;5030605;28;20388;-85
2022/03/23 14:34:19;;;;;;;16.25;10.43;;;;;;;;;;5021256;28;20041;-86
2022/03/23 14:36:45;;;;;;;20.98;11.40;;;;;;;;;;5034479;28;20049;-88
2022/03/23 14:39:21;;;;;;;19.20;11.82;;;;;;;;;;5017517;28;20037;-87
2022/03/23 14:42:14;;;;;;;19.15;11.68;;;;;;;;;;5033568;28;20059;-88
2022/03/23 14:44:43;;;;;;;18.05;12.32;;;;;;;;;;5011833;28;20324;-87
2022/03/23 14:47:14;;;;;;;23.77;13.10;;;;;;;;;;5014000;28;20049;-87
2022/03/23 14:49:42;;;;;;;19.63;11.50;;;;;;;;;;5038374;28;20382;-87
2022/03/23 14:52:09;;;;;;;19.75;13.93;;;;;;;;;;5027671;28;20081;-87
2022/03/23 14:54:39;;;;;;;24.17;14.48;;;;;;;;;;5014194;28;20045;-87
2022/03/23 14:57:06;;;;;;;19.13;13.55;;;;;;;;;;5019893;28;20052;-87
2022/03/23 14:59:42;;;;;;;22.33;13.20;;;;;;;;;;5038968;28;20113;-87
2022/03/23 15:02:29;;;;;;;20.67;12.90;;;;;;;;;;5032762;28;20041;-87